Time;durP1;ratioP1;P1;durP2;ratioP2;P2;SDS_P1;SDS_P2;PMS_P1;PMS_P2;Temp;Humidity;BMP_temperature;BMP_pressure;BME280_temperature;BME280_humidity;BME280_pressure;Samples;Min_cycle;Max_cycle;Signal;HPM_P1;HPM_P2
2022/06/15 00:01:25;;;;;;;6.63;4.20;;;;;;;14.49;61.43;101714.19;5056606;28;20033;-89
2022/06/15 00:03:52;;;;;;;8.57;4.30;;;;;;;14.40;61.92;101704.81;5049161;28;20057;-90
2022/06/15 00:06:19;;;;;;;8.35;4.75;;;;;;;14.38;62.26;101708.50;5055015;28;20046;-90
2022/06/15 00:08:47;;;;;;;5.90;4.38;;;;;;;14.34;62.00;101704.28;5055473;28;20040;-89
2022/06/15 00:11:19;;;;;;;7.57;4.50;;;;;;;14.33;62.13;101708.75;5053493;28;20036;-90
2022/06/15 00:13:46;;;;;;;7.88;4.50;;;;;;;14.25;62.42;101708.28;5053938;28;20020;-88
2022/06/15 00:16:12;;;;;;;6.70;4.18;;;;;;;14.26;62.78;101706.50;5065050;28;20036;-89
2022/06/15 00:18:37;;;;;;;6.13;4.15;;;;;;;14.20;63.13;101696.97;5071961;28;20013;-89
2022/06/15 00:21:04;;;;;;;5.85;4.68;;;;;;;14.20;62.96;101702.31;5064686;28;20029;-89
2022/06/15 00:23:31;;;;;;;5.45;4.00;;;;;;;14.17;63.23;101702.47;5061494;28;20040;-89
2022/06/15 00:25:57;;;;;;;7.97;4.95;;;;;;;14.13;63.10;101706.28;5066756;28;20037;-91
2022/06/15 00:28:24;;;;;;;9.02;5.00;;;;;;;14.04;63.75;101696.03;5059544;28;20079;-89
2022/06/15 00:30:50;;;;;;;6.32;4.93;;;;;;;14.01;64.01;101696.22;5060060;28;20031;-88
2022/06/15 00:33:16;;;;;;;7.68;5.03;;;;;;;13.95;63.41;101700.03;5061128;28;20053;-90
2022/06/15 00:35:41;;;;;;;8.98;5.15;;;;;;;13.89;64.12;101692.34;5048869;28;20033;-89
2022/06/15 00:38:07;;;;;;;9.63;4.85;;;;;;;13.85;64.21;101693.44;5046537;28;20032;-89
2022/06/15 00:40:34;;;;;;;7.70;5.10;;;;;;;13.82;64.34;101691.78;5055424;28;20423;-90
2022/06/15 00:42:59;;;;;;;11.05;5.00;;;;;;;13.78;64.58;101687.53;5045222;28;20048;-90
2022/06/15 00:45:25;;;;;;;8.48;4.80;;;;;;;13.76;64.85;101689.44;5058484;28;20477;-89
2022/06/15 00:47:50;;;;;;;11.82;4.82;;;;;;;13.72;64.63;101685.19;5037591;28;20029;-88
2022/06/15 00:50:23;;;;;;;6.03;4.85;;;;;;;13.62;64.93;101681.22;5040043;28;20044;-90
2022/06/15 00:52:54;;;;;;;7.67;4.77;;;;;;;13.63;65.34;101681.16;5049787;28;20075;-90
2022/06/15 00:55:30;;;;;;;7.80;5.05;;;;;;;13.61;65.59;101684.84;5051530;28;20029;-90
2022/06/15 00:57:56;;;;;;;8.32;5.00;;;;;;;13.52;65.46;101678.16;5051081;28;20438;-90
2022/06/15 01:00:23;;;;;;;8.27;5.30;;;;;;;13.52;66.04;101674.59;5053088;28;20060;-89
2022/06/15 01:02:48;;;;;;;7.38;4.45;;;;;;;13.53;65.93;101671.00;5061705;28;20025;-90
2022/06/15 01:05:20;;;;;;;6.65;4.72;;;;;;;13.50;65.58;101677.34;5050706;28;20021;-91
2022/06/15 01:08:05;;;;;;;6.82;4.95;;;;;;;13.41;65.71;101678.66;5046614;28;20036;-89
2022/06/15 01:10:37;;;;;;;7.93;5.05;;;;;;;13.35;66.30;101676.31;5050107;28;20037;-90
2022/06/15 01:13:41;;;;;;;9.02;5.50;;;;;;;13.24;65.69;101665.25;5053759;28;20029;-90
2022/06/15 01:16:20;;;;;;;7.85;5.10;;;;;;;13.16;66.36;101676.28;5047755;28;20522;-89
2022/06/15 01:19:18;;;;;;;8.23;5.18;;;;;;;13.17;66.28;101682.53;5052232;28;20562;-89
2022/06/15 01:21:57;;;;;;;9.32;5.63;;;;;;;13.15;66.76;101681.72;5050907;28;20607;-87
2022/06/15 01:24:22;;;;;;;9.35;5.00;;;;;;;13.10;67.44;101679.28;5046828;28;20091;-88
2022/06/15 01:27:22;;;;;;;7.93;5.22;;;;;;;13.06;66.40;101680.38;5045550;28;20402;-89
2022/06/15 01:30:12;;;;;;;7.03;5.57;;;;;;;13.01;67.20;101676.19;5081313;28;20040;-90
2022/06/15 01:32:53;;;;;;;6.57;4.95;;;;;;;12.97;67.28;101670.13;5036847;28;20048;-89
2022/06/15 01:35:29;;;;;;;8.73;5.28;;;;;;;12.98;67.96;101677.19;5042781;28;20032;-89
2022/06/15 01:38:21;;;;;;;6.40;4.75;;;;;;;12.96;68.28;101674.59;5036013;28;20017;-89
2022/06/15 01:40:58;;;;;;;9.13;5.53;;;;;;;12.92;68.47;101670.34;5023956;28;20041;-89
2022/06/15 01:43:29;;;;;;;8.40;5.30;;;;;;;12.90;68.48;101666.00;5044947;28;20038;-89
2022/06/15 01:45:58;;;;;;;13.40;5.75;;;;;;;12.88;68.93;101663.41;5048198;28;20483;-90
2022/06/15 01:48:26;;;;;;;9.10;5.10;;;;;;;12.83;69.15;101668.13;5053998;28;20037;-89
2022/06/15 01:50:58;;;;;;;8.50;5.40;;;;;;;12.81;69.29;101663.75;5082247;28;20073;-89
2022/06/15 01:53:37;;;;;;;8.93;5.43;;;;;;;12.76;68.90;101666.66;5045765;28;20475;-90
2022/06/15 01:56:09;;;;;;;7.18;5.25;;;;;;;12.71;69.39;101663.34;5048248;28;20048;-89
2022/06/15 01:58:39;;;;;;;6.68;5.47;;;;;;;12.70;69.50;101670.47;5049955;28;20033;-89
2022/06/15 02:01:16;;;;;;;6.93;4.80;;;;;;;12.65;69.13;101664.47;5036530;28;20045;-89
2022/06/15 02:03:54;;;;;;;6.90;5.00;;;;;;;12.67;69.01;101661.75;5048931;28;20057;-89
2022/06/15 02:06:46;;;;;;;6.55;4.75;;;;;;;12.60;68.92;101660.28;5052530;28;20033;-91
2022/06/15 02:09:14;;;;;;;9.02;4.97;;;;;;;12.55;70.17;101656.97;5045246;28;20031;-89
2022/06/15 02:11:42;;;;;;;7.03;5.30;;;;;;;12.53;70.43;101656.16;5045645;28;20034;-90
2022/06/15 02:14:14;;;;;;;8.65;4.90;;;;;;;12.50;70.21;101653.63;5046726;28;20467;-90
2022/06/15 02:16:59;;;;;;;9.48;5.03;;;;;;;12.49;69.81;101657.25;5047591;28;20052;-89
2022/06/15 02:19:32;;;;;;;8.02;4.68;;;;;;;12.40;70.98;101654.06;5047728;28;20138;-89
2022/06/15 02:22:02;;;;;;;10.05;5.40;;;;;;;12.37;70.79;101640.88;5051953;28;20029;-89
2022/06/15 02:24:28;;;;;;;6.22;5.05;;;;;;;12.36;71.45;101646.25;5048478;28;20064;-89
2022/06/15 02:26:53;;;;;;;8.60;5.10;;;;;;;12.33;71.03;101647.28;5047706;28;20025;-88
2022/06/15 02:29:22;;;;;;;8.10;4.90;;;;;;;12.29;71.43;101650.13;5048861;28;20045;-90
2022/06/15 02:31:48;;;;;;;9.65;5.20;;;;;;;12.27;71.32;101641.34;5052386;28;20037;-89
2022/06/15 02:34:13;;;;;;;9.85;5.32;;;;;;;12.27;71.33;101644.88;5041091;28;20486;-90
2022/06/15 02:36:39;;;;;;;8.05;5.28;;;;;;;12.23;71.70;101645.94;5066807;28;20032;-88
2022/06/15 02:39:07;;;;;;;9.60;5.15;;;;;;;12.20;72.08;101646.06;5052619;28;20036;-90
2022/06/15 02:41:33;;;;;;;7.38;5.45;;;;;;;12.15;72.16;101643.63;5043949;28;20032;-89
2022/06/15 02:44:00;;;;;;;9.32;5.40;;;;;;;12.18;71.94;101637.28;5050116;28;20033;-89
2022/06/15 02:46:27;;;;;;;9.63;5.63;;;;;;;12.10;72.44;101636.75;5047374;28;20025;-88
2022/06/15 02:48:53;;;;;;;7.88;5.70;;;;;;;12.11;72.11;101631.34;5046831;28;20028;-90
2022/06/15 02:51:28;;;;;;;8.95;5.85;;;;;;;12.08;72.18;101641.28;5048674;28;20029;-87
2022/06/15 02:53:58;;;;;;;7.03;5.43;;;;;;;12.02;72.81;101636.22;5044513;28;20060;-90
2022/06/15 02:56:24;;;;;;;10.95;6.05;;;;;;;12.02;72.73;101623.75;5055946;28;20021;-90
2022/06/15 02:58:52;;;;;;;8.20;5.78;;;;;;;11.95;73.19;101628.50;5054137;28;20049;-89
2022/06/15 03:01:18;;;;;;;9.35;5.88;;;;;;;11.98;72.92;101629.28;5048773;28;20001;-90
2022/06/15 03:03:43;;;;;;;8.55;5.47;;;;;;;11.86;73.28;101618.22;5046307;28;20137;-89
2022/06/15 03:06:14;;;;;;;7.68;5.55;;;;;;;11.88;73.32;101618.19;5052131;28;20162;-89
2022/06/15 03:08:39;;;;;;;8.43;6.00;;;;;;;11.82;73.61;101621.91;5057192;28;20048;-87
2022/06/15 03:11:05;;;;;;;8.07;5.97;;;;;;;11.82;73.33;101623.72;5060783;28;20037;-89
2022/06/15 03:13:30;;;;;;;8.52;5.78;;;;;;;11.77;73.79;101631.06;5057951;28;20127;-90
2022/06/15 03:15:58;;;;;;;10.18;5.70;;;;;;;11.76;73.80;101635.53;5075919;28;20045;-88
2022/06/15 03:18:23;;;;;;;9.55;6.15;;;;;;;11.69;74.11;101632.25;5075337;28;20039;-85
2022/06/15 03:20:49;;;;;;;11.15;5.68;;;;;;;11.73;74.39;101630.31;5067871;28;20033;-88
2022/06/15 03:23:14;;;;;;;6.00;5.40;;;;;;;11.73;74.35;101627.66;5073525;28;20017;-87
2022/06/15 03:25:40;;;;;;;7.47;6.18;;;;;;;11.69;74.39;101629.59;5068369;28;20068;-89
2022/06/15 03:28:05;;;;;;;9.55;6.32;;;;;;;11.66;74.92;101628.84;5073924;28;20061;-89
2022/06/15 03:30:31;;;;;;;7.43;5.97;;;;;;;11.64;74.61;101628.94;5066274;28;20017;-89
2022/06/15 03:32:56;;;;;;;8.70;5.75;;;;;;;11.63;75.03;101631.66;5062525;28;20041;-89
2022/06/15 03:35:22;;;;;;;10.13;6.22;;;;;;;11.65;74.85;101643.13;5071596;28;20009;-87
2022/06/15 03:37:49;;;;;;;8.30;5.80;;;;;;;11.64;74.89;101644.94;5070714;28;20013;-88
2022/06/15 03:40:15;;;;;;;8.52;6.35;;;;;;;11.57;75.09;101623.91;5099674;28;20036;-88
2022/06/15 03:42:40;;;;;;;9.23;6.40;;;;;;;11.64;75.10;101644.06;5047447;28;20029;-89
2022/06/15 03:45:07;;;;;;;9.43;6.18;;;;;;;11.63;74.96;101639.66;5049990;28;20049;-88
2022/06/15 03:47:32;;;;;;;9.48;6.13;;;;;;;11.58;75.04;101644.31;5053070;28;20036;-88
2022/06/15 03:49:58;;;;;;;9.15;5.97;;;;;;;11.58;74.96;101638.97;5046995;28;20033;-88
2022/06/15 03:52:26;;;;;;;9.15;6.63;;;;;;;11.58;75.37;101641.63;5047915;28;20025;-88
2022/06/15 03:54:52;;;;;;;10.23;6.88;;;;;;;11.63;75.42;101650.34;5044843;28;20029;-87
2022/06/15 03:57:19;;;;;;;9.52;6.40;;;;;;;11.65;75.06;101648.47;5049445;28;20036;-89
2022/06/15 03:59:45;;;;;;;9.88;6.65;;;;;;;11.65;75.20;101645.78;5047538;28;20037;-87
2022/06/15 04:02:10;;;;;;;13.32;6.72;;;;;;;11.64;74.89;101636.94;5046004;28;20479;-88
2022/06/15 04:04:37;;;;;;;11.80;6.78;;;;;;;11.70;74.85;101646.44;5047282;28;20127;-90
2022/06/15 04:07:03;;;;;;;10.50;6.82;;;;;;;11.70;75.08;101646.44;5044360;28;20029;-90
2022/06/15 04:09:28;;;;;;;11.05;6.50;;;;;;;11.66;74.82;101644.84;5051245;28;20021;-90
2022/06/15 04:12:10;;;;;;;11.18;6.80;;;;;;;11.71;75.03;101648.22;5044699;28;20060;-86
2022/06/15 04:14:36;;;;;;;13.30;6.85;;;;;;;11.68;75.21;101651.00;5050888;28;20045;-89
2022/06/15 04:17:03;;;;;;;10.32;6.60;;;;;;;11.73;75.31;101651.66;5048490;28;20070;-88
2022/06/15 04:19:31;;;;;;;9.82;6.30;;;;;;;11.73;75.18;101646.31;5050186;28;20107;-89
2022/06/15 04:21:58;;;;;;;11.48;6.90;;;;;;;11.76;75.28;101645.34;5036711;28;20036;-88
2022/06/15 04:24:26;;;;;;;13.27;6.93;;;;;;;11.84;75.08;101640.59;5052684;28;20419;-89
2022/06/15 04:26:51;;;;;;;11.05;6.90;;;;;;;11.81;75.08;101649.53;5044313;28;20041;-90
2022/06/15 04:29:19;;;;;;;9.90;6.68;;;;;;;11.87;74.70;101644.00;5048890;28;20041;-86
2022/06/15 04:31:45;;;;;;;12.75;7.05;;;;;;;11.88;74.84;101637.72;5045956;28;20017;-89
2022/06/15 04:34:10;;;;;;;9.00;6.90;;;;;;;11.91;74.94;101628.69;5051413;28;20025;-89
2022/06/15 04:36:38;;;;;;;11.63;6.50;;;;;;;11.98;74.56;101639.97;5055980;28;20098;-89
2022/06/15 04:39:05;;;;;;;13.55;7.10;;;;;;;11.98;74.30;101627.50;5049881;28;20036;-89
2022/06/15 04:41:32;;;;;;;12.77;7.07;;;;;;;11.95;74.47;101631.19;5054299;28;20013;-88
2022/06/15 04:43:58;;;;;;;10.73;7.20;;;;;;;12.00;74.39;101630.06;5056326;28;20034;-88
2022/06/15 04:46:23;;;;;;;10.75;6.93;;;;;;;12.09;74.35;101637.69;5052626;28;20099;-87
2022/06/15 04:48:48;;;;;;;14.32;7.13;;;;;;;12.05;74.33;101631.63;5047149;28;20553;-89
2022/06/15 04:51:17;;;;;;;10.40;6.63;;;;;;;12.13;73.91;101637.50;5050867;28;20021;-87
2022/06/15 04:53:42;;;;;;;8.52;6.25;;;;;;;12.21;74.50;101639.81;5049523;28;20103;-87
2022/06/15 04:56:08;;;;;;;10.98;7.00;;;;;;;12.34;74.14;101645.47;5052079;28;20057;-88
2022/06/15 04:58:34;;;;;;;7.53;6.30;;;;;;;12.39;74.21;101636.31;5056681;28;20046;-87
2022/06/15 05:01:00;;;;;;;9.70;6.80;;;;;;;12.51;73.46;101658.06;5042683;28;20047;-86
2022/06/15 05:03:25;;;;;;;10.98;6.50;;;;;;;12.56;73.24;101654.22;5050931;28;20136;-86
2022/06/15 05:05:57;;;;;;;8.52;6.10;;;;;;;12.63;72.59;101645.00;5053736;28;20033;-88
2022/06/15 05:08:23;;;;;;;12.00;6.45;;;;;;;12.79;72.47;101652.28;5054221;28;20087;-88
2022/06/15 05:10:48;;;;;;;10.52;6.60;;;;;;;12.83;72.17;101646.75;5054971;28;20028;-88
2022/06/15 05:13:14;;;;;;;10.25;6.10;;;;;;;12.93;72.27;101644.47;5048129;28;20021;-88
2022/06/15 05:15:39;;;;;;;11.57;6.55;;;;;;;13.02;71.64;101637.81;5053777;28;20375;-87
2022/06/15 05:18:06;;;;;;;10.32;6.30;;;;;;;13.13;71.62;101643.53;5055657;28;20064;-88
2022/06/15 05:20:35;;;;;;;13.00;6.80;;;;;;;13.20;70.78;101644.94;5048017;28;20038;-88
2022/06/15 05:23:01;;;;;;;11.90;7.10;;;;;;;13.30;70.74;101640.06;5051467;28;20025;-86
2022/06/15 05:25:27;;;;;;;11.63;6.63;;;;;;;13.40;70.36;101644.84;5050797;28;20529;-86
2022/06/15 05:27:52;;;;;;;9.65;6.50;;;;;;;13.47;70.35;101639.22;5059345;28;20029;-86
2022/06/15 05:30:18;;;;;;;11.43;6.63;;;;;;;13.61;70.11;101652.75;5054245;28;20025;-87
2022/06/15 05:32:43;;;;;;;9.65;6.50;;;;;;;13.71;69.77;101646.00;5063739;28;20025;-87
2022/06/15 05:35:09;;;;;;;10.10;6.25;;;;;;;13.79;69.18;101651.78;5052922;28;20037;-85
2022/06/15 05:37:35;;;;;;;10.32;6.70;;;;;;;13.85;68.93;101642.59;5060292;28;20030;-87
2022/06/15 05:40:00;;;;;;;13.48;6.75;;;;;;;13.97;68.14;101646.47;5058493;28;20032;-86
2022/06/15 05:42:28;;;;;;;12.55;6.82;;;;;;;14.07;68.31;101642.34;5052704;28;20454;-88
2022/06/15 05:44:54;;;;;;;11.38;6.60;;;;;;;14.18;67.61;101648.00;5056669;28;20039;-86
2022/06/15 05:47:19;;;;;;;12.60;6.60;;;;;;;14.29;67.74;101653.63;5061019;28;20041;-89
2022/06/15 05:49:45;;;;;;;9.82;6.47;;;;;;;14.44;67.52;101650.13;5053379;28;20009;-87
2022/06/15 05:52:11;;;;;;;10.75;7.07;;;;;;;14.58;66.97;101654.75;5056724;28;20056;-86
2022/06/15 05:54:37;;;;;;;12.63;6.65;;;;;;;14.71;66.34;101652.28;5060019;28;20025;-87
2022/06/15 05:57:10;;;;;;;10.00;6.32;;;;;;;14.83;66.25;101648.91;5057467;28;20108;-87
2022/06/15 05:59:35;;;;;;;10.07;5.95;;;;;;;14.97;65.95;101639.25;5056489;28;20044;-89
2022/06/15 06:02:00;;;;;;;12.75;6.40;;;;;;;15.16;65.87;101639.91;5047403;28;20043;-90
2022/06/15 06:04:25;;;;;;;10.45;6.25;;;;;;;15.33;64.78;101653.22;5051819;28;20041;-88
2022/06/15 06:06:51;;;;;;;6.70;5.35;;;;;;;15.51;64.20;101645.94;5058882;28;20029;-90
2022/06/15 06:09:16;;;;;;;7.88;5.72;;;;;;;15.69;63.10;101655.59;5073662;28;20040;-90
2022/06/15 06:11:41;;;;;;;9.23;6.07;;;;;;;15.79;62.93;101649.69;5066688;28;20029;-91
2022/06/15 06:14:08;;;;;;;10.38;6.25;;;;;;;16.01;62.24;101659.97;5069186;28;20047;-92
2022/06/15 06:16:34;;;;;;;8.85;5.93;;;;;;;16.21;61.90;101651.56;5056307;28;20337;-91
2022/06/15 06:18:59;;;;;;;9.55;6.00;;;;;;;16.44;61.22;101651.03;5064530;28;20107;-89
2022/06/15 06:21:24;;;;;;;12.77;6.03;;;;;;;16.62;60.56;101646.28;5069360;28;20018;-91
2022/06/15 06:23:50;;;;;;;10.85;6.07;;;;;;;16.78;59.62;101638.16;5099084;28;20041;-91
2022/06/15 06:26:22;;;;;;;9.07;6.25;;;;;;;16.95;59.64;101642.44;5065851;28;20043;-91
2022/06/15 06:28:48;;;;;;;11.18;5.50;;;;;;;17.16;59.84;101649.09;5056857;28;20097;-91
2022/06/15 06:31:14;;;;;;;9.45;5.57;;;;;;;17.34;59.14;101644.31;5052569;28;20082;-91
2022/06/15 06:33:39;;;;;;;11.25;5.68;;;;;;;17.48;58.29;101640.72;5051597;28;20048;-90
2022/06/15 06:36:16;;;;;;;10.20;6.05;;;;;;;17.60;57.95;101644.44;5056009;28;20459;-92
2022/06/15 06:38:42;;;;;;;10.65;5.93;;;;;;;17.85;57.27;101657.13;5046150;28;20032;-93
2022/06/15 06:41:09;;;;;;;10.40;5.65;;;;;;;17.98;56.94;101651.75;5056215;28;20021;-93
2022/06/15 06:43:34;;;;;;;11.63;7.65;;;;;;;18.11;56.83;101652.63;5054645;28;20103;-94
2022/06/15 06:45:59;;;;;;;7.70;5.22;;;;;;;18.26;56.15;101654.22;5055404;28;20052;-94
2022/06/15 06:48:25;;;;;;;8.43;5.18;;;;;;;18.41;55.91;101653.16;5076825;28;20029;-94
2022/06/15 06:50:52;;;;;;;6.18;5.03;;;;;;;18.67;56.38;101658.50;5055029;28;20029;-93
2022/06/15 06:53:18;;;;;;;10.35;4.93;;;;;;;18.90;55.00;101657.75;5058675;28;20063;-92
2022/06/15 06:55:44;;;;;;;9.65;5.40;;;;;;;18.92;53.68;101658.47;5058721;28;20013;-94
2022/06/15 06:58:09;;;;;;;10.02;5.28;;;;;;;19.09;53.78;101653.69;5060907;28;20043;-91
2022/06/15 07:00:36;;;;;;;8.10;5.82;;;;;;;19.23;53.70;101655.34;5044071;28;20017;-95
2022/06/15 07:03:04;;;;;;;11.95;5.53;;;;;;;19.27;53.24;101662.25;5057373;28;20072;-92
2022/06/15 07:05:32;;;;;;;8.20;5.38;;;;;;;19.19;52.23;101670.03;5061440;28;20029;-93
2022/06/15 07:07:57;;;;;;;9.90;5.10;;;;;;;19.19;51.61;101665.53;5055146;28;20032;-92
2022/06/15 07:10:25;;;;;;;9.65;5.10;;;;;;;19.20;51.78;101669.94;5058971;28;20021;-93
2022/06/15 07:12:51;;;;;;;8.75;4.88;;;;;;;19.40;52.05;101668.47;5057812;28;20052;-91
2022/06/15 07:15:16;;;;;;;8.68;5.15;;;;;;;19.53;51.28;101673.81;5057849;28;20021;-93
2022/06/15 07:17:42;;;;;;;8.07;4.63;;;;;;;19.70;51.25;101665.31;5072934;28;20024;-90
2022/06/15 07:20:09;;;;;;;7.97;4.55;;;;;;;19.95;50.98;101674.25;5056502;28;20131;-92
2022/06/15 07:22:35;;;;;;;8.57;4.25;;;;;;;20.10;50.02;101667.63;5052832;28;20060;-93
2022/06/15 07:25:02;;;;;;;7.95;4.47;;;;;;;20.27;48.81;101674.41;5059006;28;20381;-92
2022/06/15 07:27:27;;;;;;;7.95;4.25;;;;;;;20.43;48.68;101663.25;5057380;28;20055;-94
2022/06/15 07:29:55;;;;;;;7.03;4.28;;;;;;;20.62;48.00;101672.53;5065552;28;20459;-91
2022/06/15 07:32:21;;;;;;;7.72;3.85;;;;;;;20.93;47.52;101663.75;5048733;28;20036;-94
2022/06/15 07:34:46;;;;;;;6.38;3.70;;;;;;;21.25;46.56;101661.13;5067402;28;20037;-94
2022/06/15 07:37:12;;;;;;;7.55;4.03;;;;;;;21.68;45.83;101663.81;5068720;28;20226;-93
2022/06/15 07:39:38;;;;;;;7.18;3.80;;;;;;;21.90;44.79;101662.84;5056808;28;20028;-91
2022/06/15 07:42:06;;;;;;;7.82;4.15;;;;;;;22.30;44.28;101668.41;5048164;28;20032;-91
2022/06/15 07:44:34;;;;;;;9.45;4.00;;;;;;;22.55;43.52;101668.97;5057071;28;20048;-94
2022/06/15 07:49:54;;;;;;;8.23;3.97;;;;;;;23.41;42.17;101672.09;5052838;28;20079;-93
2022/06/15 07:52:25;;;;;;;7.95;4.07;;;;;;;23.75;40.51;101672.59;5047467;28;20033;-92
2022/06/15 07:54:50;;;;;;;8.75;3.60;;;;;;;24.32;39.29;101687.06;5045577;28;20213;-90
2022/06/15 07:57:16;;;;;;;9.00;4.00;;;;;;;24.52;38.21;101668.88;5059610;28;20024;-92
2022/06/15 07:59:42;;;;;;;4.00;3.15;;;;;;;25.29;38.08;101667.63;5059392;28;20028;-91
2022/06/15 08:02:08;;;;;;;7.95;4.82;;;;;;;25.68;37.19;101664.63;5055698;28;20471;-89
2022/06/15 08:04:33;;;;;;;8.88;4.78;;;;;;;26.29;36.98;101671.91;5056568;28;20044;-89
2022/06/15 08:06:59;;;;;;;7.55;3.72;;;;;;;26.63;35.11;101668.38;5057247;28;20031;-90
2022/06/15 08:09:25;;;;;;;5.35;3.30;;;;;;;26.78;34.42;101677.69;5050672;28;20024;-90
2022/06/15 08:14:38;;;;;;;6.13;2.92;;;;;;;27.09;33.26;101675.25;5053096;28;20043;-88
2022/06/15 08:17:06;;;;;;;6.47;3.05;;;;;;;27.19;33.26;101676.00;5042193;28;20033;-90
2022/06/15 08:19:36;;;;;;;5.00;3.03;;;;;;;27.72;33.56;101665.66;5078729;28;20044;-91
2022/06/15 08:22:02;;;;;;;5.93;3.20;;;;;;;28.25;32.65;101669.75;5047310;28;20033;-90
2022/06/15 08:24:27;;;;;;;6.22;3.70;;;;;;;28.61;32.34;101672.94;5047475;28;20540;-90
2022/06/15 08:26:53;;;;;;;6.68;3.65;;;;;;;28.85;31.28;101674.75;5051984;28;20421;-90
2022/06/15 08:29:19;;;;;;;9.93;3.50;;;;;;;28.99;30.14;101684.97;5054972;28;20013;-89
2022/06/15 08:31:45;;;;;;;6.18;3.90;;;;;;;29.08;29.95;101680.31;5051350;28;20021;-89
2022/06/15 08:34:10;;;;;;;8.48;4.97;;;;;;;29.28;29.39;101677.97;5051506;28;20054;-90
2022/06/15 08:36:37;;;;;;;8.50;3.72;;;;;;;29.50;28.94;101679.88;5054523;28;20029;-90
2022/06/15 08:39:04;;;;;;;6.85;3.30;;;;;;;29.66;28.53;101684.41;5047647;28;20045;-90
2022/06/15 08:41:45;;;;;;;5.78;3.47;;;;;;;29.95;29.86;101680.06;5046824;28;20028;-91
2022/06/15 08:45:01;;;;;;;5.32;3.30;;;;;;;30.08;29.00;101677.53;5053055;28;20029;-88
2022/06/15 08:47:48;;;;;;;7.15;3.33;;;;;;;30.11;27.88;101671.69;5046022;28;20049;-89
2022/06/15 08:50:34;;;;;;;4.82;3.00;;;;;;;30.55;28.03;101676.38;5048072;28;20036;-90
2022/06/15 08:53:11;;;;;;;6.85;2.97;;;;;;;30.95;26.70;101676.97;5053460;28;20045;-90
2022/06/15 08:55:59;;;;;;;6.75;2.90;;;;;;;31.47;26.35;101673.16;5051970;28;20032;-90
2022/06/15 08:58:46;;;;;;;8.27;3.00;;;;;;;31.47;25.84;101678.66;5035199;28;20075;-90
2022/06/15 09:01:32;;;;;;;8.55;3.40;;;;;;;31.05;25.05;101676.66;5036290;28;20071;-88
2022/06/15 09:04:13;;;;;;;5.10;3.03;;;;;;;31.31;25.54;101673.38;5035841;28;20081;-90
2022/06/15 09:06:56;;;;;;;8.10;3.30;;;;;;;31.10;24.78;101679.69;5015569;28;20038;-91
2022/06/15 09:09:54;;;;;;;7.57;3.33;;;;;;;31.88;25.62;101665.09;5044569;28;20124;-90
2022/06/15 09:15:15;;;;;;;8.10;3.25;;;;;;;31.92;23.87;101668.31;5032936;28;20043;-90
2022/06/15 09:17:42;;;;;;;6.28;3.17;;;;;;;31.83;24.20;101675.00;5042714;28;20056;-91
2022/06/15 09:20:16;;;;;;;6.47;3.47;;;;;;;31.71;23.95;101671.91;5053218;28;20037;-89
2022/06/15 09:22:50;;;;;;;6.32;3.10;;;;;;;32.22;24.46;101667.06;5049218;28;20045;-86
2022/06/15 09:25:30;;;;;;;7.07;3.25;;;;;;;32.70;23.32;101671.84;5037192;28;20030;-87
2022/06/15 09:28:09;;;;;;;7.22;3.40;;;;;;;32.93;23.90;101675.16;5045185;28;20041;-86
2022/06/15 09:30:40;;;;;;;6.72;3.03;;;;;;;33.46;22.72;101669.84;5048958;28;20041;-88
2022/06/15 09:33:43;;;;;;;7.93;3.65;;;;;;;34.18;23.42;101672.88;5050927;28;20033;-87
2022/06/15 09:36:16;;;;;;;7.90;3.40;;;;;;;34.26;21.32;101675.41;5054596;28;20063;-88
2022/06/15 09:38:42;;;;;;;5.57;2.97;;;;;;;33.67;21.53;101662.44;5061251;28;20089;-89
2022/06/15 09:41:12;;;;;;;4.68;2.88;;;;;;;34.21;22.82;101669.69;5059065;28;20036;-88
2022/06/15 09:44:14;;;;;;;6.43;3.03;;;;;;;34.71;22.11;101663.66;5045044;28;20131;-87
2022/06/15 09:47:10;;;;;;;7.45;3.38;;;;;;;35.05;21.25;101659.72;5044376;28;20032;-88
2022/06/15 09:49:55;;;;;;;7.88;3.28;;;;;;;35.06;20.62;101653.09;5040919;28;20033;-89
2022/06/15 09:52:28;;;;;;;7.57;3.55;;;;;;;35.53;20.79;101665.59;5046472;28;20475;-88
2022/06/15 09:55:09;;;;;;;9.50;3.40;;;;;;;35.36;21.51;101659.72;5047455;28;20039;-89
2022/06/15 09:57:36;;;;;;;6.03;3.30;;;;;;;35.78;20.33;101650.94;5036601;28;20064;-89
2022/06/15 10:00:04;;;;;;;7.82;3.25;;;;;;;35.80;19.35;101659.88;5043111;28;20029;-87
2022/06/15 10:02:35;;;;;;;5.68;3.05;;;;;;;36.22;19.25;101652.69;5051187;28;20032;-88
2022/06/15 10:05:04;;;;;;;6.65;3.13;;;;;;;36.60;19.32;101655.28;5052027;28;20045;-88
2022/06/15 10:07:37;;;;;;;6.78;2.90;;;;;;;37.23;18.92;101658.78;5051203;28;20037;-89
2022/06/15 10:10:14;;;;;;;;;;;;;;;38.51;19.24;101657.34;5047656;28;20026;-92
2022/06/15 10:13:02;;;;;;;5.88;3.65;;;;;;;36.77;18.03;101657.44;5062640;28;19916;-91
2022/06/15 10:15:36;;;;;;;6.90;3.45;;;;;;;37.36;18.48;101664.97;5042753;28;20027;-90
2022/06/15 10:18:17;;;;;;;7.72;3.20;;;;;;;38.23;18.67;101658.88;5046531;28;20032;-91
2022/06/15 10:20:55;;;;;;;6.50;3.20;;;;;;;38.55;18.19;101664.94;5051559;28;20025;-92
2022/06/15 10:23:29;;;;;;;9.10;3.22;;;;;;;37.75;17.27;101670.16;5056114;28;20116;-92
2022/06/15 10:25:56;;;;;;;6.18;3.53;;;;;;;37.71;17.40;101666.19;5051239;28;20045;-92
2022/06/15 10:28:25;;;;;;;7.03;3.60;;;;;;;37.86;16.50;101658.28;5041298;28;20431;-91
2022/06/15 10:31:02;;;;;;;5.88;3.30;;;;;;;38.18;17.46;101656.00;5058848;28;20487;-92
2022/06/15 10:33:47;;;;;;;6.47;3.30;;;;;;;38.65;17.49;101663.47;5060501;28;20025;-92
2022/06/15 10:36:22;;;;;;;6.18;3.15;;;;;;;39.05;17.47;101666.28;5057681;28;20375;-93
2022/06/15 10:39:19;;;;;;;5.38;3.00;;;;;;;38.93;16.99;101657.97;5046989;28;20072;-91
2022/06/15 10:41:47;;;;;;;7.22;3.17;;;;;;;38.29;16.75;101654.28;5031204;28;20048;-90
2022/06/15 10:44:35;;;;;;;6.05;3.10;;;;;;;38.57;17.06;101659.97;5060783;28;20029;-89
2022/06/15 10:47:06;;;;;;;6.63;3.25;;;;;;;37.89;17.68;101652.25;5041774;28;20025;-94
2022/06/15 10:49:41;;;;;;;6.97;3.53;;;;;;;37.69;17.90;101658.09;5043418;28;20026;-88
2022/06/15 10:52:21;;;;;;;7.15;3.72;;;;;;;38.31;18.37;101652.97;5070024;28;20026;-92
2022/06/15 11:03:31;;;;;;;6.53;3.22;;;;;;;40.22;16.17;101637.72;5060164;28;20421;-93
2022/06/15 11:05:58;;;;;;;4.63;2.78;;;;;;;39.99;15.71;101646.25;5052107;28;20072;-94
2022/06/15 11:08:26;;;;;;;5.80;3.15;;;;;;;40.09;16.03;101638.91;5041949;28;20044;-93
2022/06/15 11:11:10;;;;;;;13.05;4.60;;;;;;;40.36;16.75;101628.97;5053513;28;20031;-92
2022/06/15 11:13:39;;;;;;;5.85;3.42;;;;;;;39.67;16.25;101627.34;5059471;28;20047;-95
2022/06/15 11:19:07;;;;;;;6.40;3.15;;;;;;;39.15;16.62;101626.66;5039935;28;20068;-93
2022/06/15 11:21:40;;;;;;;5.68;3.58;;;;;;;39.38;17.03;101628.47;5053476;28;20080;-93
2022/06/15 11:24:25;;;;;;;4.85;3.20;;;;;;;39.90;16.39;101628.28;5058672;28;20460;-91
2022/06/15 11:26:57;;;;;;;6.18;2.92;;;;;;;40.47;15.97;101617.72;5056694;28;20045;-93
2022/06/15 11:29:48;;;;;;;4.43;3.03;;;;;;;40.49;16.12;101631.38;5057433;28;20064;-94
2022/06/15 11:32:31;;;;;;;7.50;3.65;;;;;;;40.17;16.49;101628.44;5040199;28;20075;-94
2022/06/15 11:35:12;;;;;;;7.35;3.63;;;;;;;39.88;16.20;101631.31;5044068;28;20044;-93
2022/06/15 11:37:57;;;;;;;7.97;3.72;;;;;;;39.76;16.72;101627.78;5050832;28;20067;-93
2022/06/15 11:40:40;;;;;;;7.13;3.08;;;;;;;39.76;16.82;101634.22;5054559;28;20410;-93
2022/06/15 11:43:17;;;;;;;7.75;3.00;;;;;;;39.99;15.99;101643.47;5043786;28;20059;-91
2022/06/15 11:46:15;;;;;;;11.88;3.33;;;;;;;39.68;17.18;101636.56;5049381;28;20400;-92
2022/06/15 11:49:08;;;;;;;7.93;3.40;;;;;;;40.38;16.07;101629.56;5036116;28;20059;-92
2022/06/15 11:52:01;;;;;;;6.32;3.10;;;;;;;40.45;15.92;101638.59;5052678;28;20021;-90
2022/06/15 11:54:39;;;;;;;7.10;2.90;;;;;;;40.97;15.80;101629.78;5052832;28;20033;-92
2022/06/15 11:57:30;;;;;;;6.30;2.90;;;;;;;41.16;15.71;101628.31;5044766;28;20041;-94
2022/06/15 12:00:23;;;;;;;7.28;2.85;;;;;;;42.33;15.41;101622.88;5038726;28;20072;-92
2022/06/15 12:03:10;;;;;;;7.03;3.58;;;;;;;41.73;16.03;101626.91;5054449;28;20332;-92